createdAt,value
2019-05-21T00:02:25.698Z,14.85
2019-05-21T00:04:54.503Z,14.98
2019-05-21T00:07:23.240Z,15.02
2019-05-21T00:09:52.010Z,14.99
2019-05-21T00:12:20.727Z,14.97
2019-05-21T00:14:49.484Z,15.00
2019-05-21T00:17:18.301Z,15.10
2019-05-21T00:19:47.109Z,15.03
2019-05-21T00:22:15.828Z,15.25
2019-05-21T00:24:44.740Z,15.25
2019-05-21T00:27:13.495Z,15.25
2019-05-21T00:30:18.586Z,15.25
2019-05-21T00:33:23.789Z,15.21
2019-05-21T00:36:30.137Z,15.21
2019-05-21T00:39:35.478Z,15.29
2019-05-21T00:42:03.146Z,15.26
2019-05-21T00:44:35.263Z,15.25
2019-05-21T00:47:05.192Z,15.22
2019-05-21T00:49:34.019Z,15.32
2019-05-21T00:52:08.174Z,15.36
2019-05-21T00:54:33.526Z,15.29
2019-05-21T00:57:02.321Z,15.28
2019-05-21T00:59:31.148Z,15.29
2019-05-21T01:01:59.915Z,15.29
2019-05-21T01:04:28.663Z,15.28
2019-05-21T01:06:57.405Z,15.26
2019-05-21T01:09:26.506Z,15.29
2019-05-21T01:11:55.241Z,15.22
2019-05-21T01:14:23.979Z,15.24
2019-05-21T01:16:52.779Z,15.23
2019-05-21T01:19:21.527Z,15.26
2019-05-21T01:21:50.361Z,15.19
2019-05-21T01:24:19.175Z,15.23
2019-05-21T01:26:47.926Z,15.21
2019-05-21T01:29:16.739Z,15.26
2019-05-21T01:31:45.491Z,15.18
2019-05-21T01:34:14.219Z,15.28
2019-05-21T01:36:42.971Z,15.26
2019-05-21T01:39:11.768Z,15.21
2019-05-21T01:41:40.547Z,15.30
2019-05-21T01:44:09.359Z,15.27
2019-05-21T01:46:38.147Z,15.29
2019-05-21T01:49:06.884Z,15.26
2019-05-21T01:51:35.781Z,15.31
2019-05-21T01:54:04.800Z,15.28
2019-05-21T01:56:33.615Z,15.26
2019-05-21T01:59:02.367Z,15.30
2019-05-21T02:01:31.461Z,15.26
2019-05-21T02:04:00.196Z,15.26
2019-05-21T02:06:28.948Z,15.25
2019-05-21T02:08:57.672Z,15.27
2019-05-21T02:11:26.418Z,15.19
2019-05-21T02:13:55.172Z,15.20
2019-05-21T02:16:23.916Z,15.18
2019-05-21T02:18:52.743Z,15.17
2019-05-21T02:21:21.577Z,15.19
2019-05-21T02:23:50.585Z,15.20
2019-05-21T02:26:19.401Z,15.08
2019-05-21T02:28:48.163Z,15.10
2019-05-21T02:31:16.916Z,15.05
2019-05-21T02:33:45.866Z,15.10
2019-05-21T02:36:14.626Z,15.11
2019-05-21T02:38:43.571Z,15.13
2019-05-21T02:41:12.436Z,15.13
2019-05-21T02:43:41.493Z,15.13
2019-05-21T02:46:10.287Z,15.06
2019-05-21T02:48:39.018Z,15.08
2019-05-21T02:51:07.762Z,15.10
2019-05-21T02:53:36.499Z,15.05
2019-05-21T02:56:05.325Z,15.05
2019-05-21T02:58:34.133Z,15.11
2019-05-21T03:01:12.512Z,15.14
2019-05-21T03:03:41.323Z,15.12
2019-05-21T03:06:14.168Z,15.13
2019-05-21T03:08:43.527Z,15.04
2019-05-21T03:11:12.273Z,15.04
2019-05-21T03:13:41.024Z,15.05
2019-05-21T03:16:09.744Z,15.12
2019-05-21T03:18:38.486Z,15.11
2019-05-21T03:21:07.359Z,15.17
2019-05-21T03:23:36.173Z,15.20
2019-05-21T03:26:05.045Z,15.17
2019-05-21T03:28:33.850Z,15.11
2019-05-21T03:31:02.565Z,15.04
2019-05-21T03:33:31.433Z,15.09
2019-05-21T03:36:00.173Z,15.12
2019-05-21T03:38:28.938Z,15.09
2019-05-21T03:40:57.698Z,15.13
2019-05-21T03:43:26.501Z,15.01
2019-05-21T03:45:55.233Z,15.08
2019-05-21T03:48:24.088Z,15.16
2019-05-21T03:50:52.905Z,15.19
2019-05-21T03:53:21.670Z,15.18
2019-05-21T03:55:50.435Z,15.05
2019-05-21T03:58:19.191Z,15.10
2019-05-21T04:00:48.294Z,15.13
2019-05-21T04:03:17.052Z,15.09
2019-05-21T04:05:45.872Z,15.20
2019-05-21T04:08:14.620Z,15.24
2019-05-21T04:10:43.429Z,15.14
2019-05-21T04:13:12.515Z,15.22
2019-05-21T04:16:06.710Z,15.13
2019-05-21T04:18:43.298Z,15.16
2019-05-21T04:21:12.095Z,15.24
2019-05-21T04:23:40.878Z,15.24
2019-05-21T04:26:09.601Z,15.26
2019-05-21T04:28:38.458Z,15.24
2019-05-21T04:31:07.551Z,15.40
2019-05-21T04:33:36.344Z,15.30
2019-05-21T04:36:05.356Z,15.36
2019-05-21T04:38:34.215Z,15.29
2019-05-21T04:41:03.122Z,15.31
2019-05-21T04:43:31.880Z,15.34
2019-05-21T04:46:00.860Z,15.31
2019-05-21T04:48:29.632Z,15.27
2019-05-21T04:50:58.533Z,15.29
2019-05-21T04:53:27.370Z,15.34
2019-05-21T04:55:56.096Z,15.27
2019-05-21T04:58:24.838Z,15.28
2019-05-21T05:00:53.711Z,15.35
2019-05-21T05:03:22.605Z,15.47
2019-05-21T05:05:51.413Z,15.37
2019-05-21T05:08:20.226Z,15.39
2019-05-21T05:10:49.495Z,15.45
2019-05-21T05:13:18.282Z,15.43
2019-05-21T05:15:47.010Z,15.43
2019-05-21T05:18:16.047Z,15.39
2019-05-21T05:20:44.771Z,15.44
2019-05-21T05:23:13.551Z,15.37
2019-05-21T05:25:42.351Z,15.28
2019-05-21T05:28:11.106Z,15.41
2019-05-21T05:30:39.996Z,15.28
2019-05-21T05:33:08.955Z,15.32
2019-05-21T05:35:37.797Z,15.39
2019-05-21T05:38:06.582Z,15.31
2019-05-21T05:40:35.331Z,15.19
2019-05-21T05:43:04.396Z,15.18
2019-05-21T05:45:33.533Z,15.14
2019-05-21T05:48:02.341Z,15.05
2019-05-21T05:50:34.656Z,14.99
2019-05-21T05:53:03.462Z,15.08
2019-05-21T05:55:32.293Z,14.74
2019-05-21T05:58:01.122Z,14.90
2019-05-21T06:00:30.136Z,14.75
2019-05-21T06:02:58.951Z,14.75
2019-05-21T06:05:27.932Z,14.88
2019-05-21T06:08:00.074Z,15.02
2019-05-21T06:10:28.516Z,15.11
2019-05-21T06:12:57.278Z,14.99
2019-05-21T06:15:26.138Z,15.08
2019-05-21T06:17:55.042Z,15.06
2019-05-21T06:20:24.394Z,15.18
2019-05-21T06:22:53.255Z,15.11
2019-05-21T06:25:22.151Z,15.15
2019-05-21T06:27:50.928Z,14.99
2019-05-21T06:30:19.890Z,15.16
2019-05-21T06:32:48.635Z,15.15
2019-05-21T06:35:17.881Z,14.95
2019-05-21T06:37:46.614Z,15.00
2019-05-21T06:40:16.829Z,15.06
2019-05-21T06:42:45.600Z,15.14
2019-05-21T06:45:15.016Z,15.17
2019-05-21T06:47:43.805Z,15.21
2019-05-21T06:50:12.799Z,15.07
2019-05-21T06:52:41.584Z,15.19
2019-05-21T06:55:11.306Z,15.18
2019-05-21T06:57:40.174Z,15.19
2019-05-21T07:00:10.816Z,15.09
2019-05-21T07:02:39.568Z,15.05
2019-05-21T07:05:08.707Z,14.88
2019-05-21T07:07:37.728Z,15.03
2019-05-21T07:10:07.202Z,15.09
2019-05-21T07:12:36.491Z,15.28
2019-05-21T07:15:06.163Z,15.21
2019-05-21T07:17:34.974Z,15.20
2019-05-21T07:20:04.001Z,15.22
2019-05-21T07:22:32.823Z,15.37
2019-05-21T07:25:01.635Z,15.47
2019-05-21T07:27:30.340Z,15.56
2019-05-21T07:29:59.167Z,15.46
2019-05-21T07:32:28.054Z,15.50
2019-05-21T07:34:56.956Z,15.31
2019-05-21T07:37:25.670Z,15.15
2019-05-21T07:39:54.413Z,15.18
2019-05-21T07:42:23.144Z,15.17
2019-05-21T07:44:51.887Z,15.23
2019-05-21T07:47:20.607Z,15.27
2019-05-21T07:49:49.356Z,15.25
2019-05-21T07:52:18.348Z,15.31
2019-05-21T07:54:47.168Z,15.26
2019-05-21T07:57:15.901Z,15.25
2019-05-21T07:59:44.687Z,15.44
2019-05-21T08:02:13.426Z,15.15
2019-05-21T08:04:42.206Z,14.99
2019-05-21T08:07:10.941Z,15.08
2019-05-21T08:09:40.141Z,15.02
2019-05-21T08:12:27.861Z,15.07
2019-05-21T08:14:39.407Z,15.04
2019-05-21T08:17:08.148Z,15.02
2019-05-21T08:19:36.870Z,15.08
2019-05-21T08:22:05.639Z,15.16
2019-05-21T08:24:34.362Z,15.09
2019-05-21T08:27:03.413Z,15.29
2019-05-21T08:29:32.125Z,15.32
2019-05-21T08:32:00.862Z,15.11
2019-05-21T08:34:29.598Z,14.98
2019-05-21T08:36:58.434Z,14.94
2019-05-21T08:39:29.071Z,14.90
2019-05-21T08:41:58.076Z,15.13
2019-05-21T08:44:26.820Z,15.33
2019-05-21T08:46:55.614Z,15.27
2019-05-21T08:49:24.404Z,15.11
2019-05-21T08:51:53.151Z,15.08
2019-05-21T08:54:40.900Z,14.98
2019-05-21T08:57:09.711Z,14.89
2019-05-21T08:59:38.444Z,14.81
2019-05-21T09:02:07.452Z,14.58
2019-05-21T09:04:45.858Z,14.75
2019-05-21T09:07:07.031Z,14.66
2019-05-21T09:09:49.461Z,14.69
2019-05-21T09:12:06.363Z,14.53
2019-05-21T09:14:35.185Z,14.53
2019-05-21T09:17:04.249Z,14.70
2019-05-21T09:19:36.159Z,14.89
2019-05-21T09:22:03.532Z,14.95
2019-05-21T09:24:32.348Z,14.70
2019-05-21T09:27:01.110Z,14.79
2019-05-21T09:29:29.848Z,14.77
2019-05-21T09:31:58.583Z,14.84
2019-05-21T09:34:27.368Z,14.64
2019-05-21T09:36:56.160Z,14.77
2019-05-21T09:39:24.899Z,14.76
2019-05-21T09:41:53.647Z,14.62
2019-05-21T09:44:22.553Z,14.54
2019-05-21T09:46:52.378Z,14.72
2019-05-21T09:49:21.180Z,14.77
2019-05-21T09:51:50.188Z,14.66
2019-05-21T09:54:18.987Z,14.88
2019-05-21T09:56:47.735Z,14.90
2019-05-21T09:59:33.916Z,14.76
2019-05-21T10:02:07.079Z,14.60
2019-05-21T10:04:36.194Z,14.86
2019-05-21T10:07:05.438Z,15.13
2019-05-21T10:09:34.322Z,15.10
2019-05-21T10:12:03.512Z,14.92
2019-05-21T10:14:34.237Z,15.20
2019-05-21T10:17:03.364Z,14.78
2019-05-21T10:19:32.421Z,15.08
2019-05-21T10:22:01.218Z,14.97
2019-05-21T10:24:29.916Z,15.27
2019-05-21T10:26:58.644Z,15.50
2019-05-21T10:29:27.377Z,15.39
2019-05-21T10:31:56.224Z,15.14
2019-05-21T10:34:25.018Z,15.04
2019-05-21T10:36:54.155Z,15.28
2019-05-21T10:39:23.000Z,15.34
2019-05-21T10:41:51.734Z,15.29
2019-05-21T10:44:20.582Z,15.34
2019-05-21T10:46:49.545Z,15.43
2019-05-21T10:49:18.293Z,15.23
2019-05-21T10:51:47.251Z,15.08
2019-05-21T10:54:16.002Z,15.05
2019-05-21T10:56:48.336Z,14.86
2019-05-21T10:59:15.389Z,14.94
2019-05-21T11:02:09.583Z,15.03
2019-05-21T11:04:45.456Z,14.83
2019-05-21T11:07:15.807Z,14.84
2019-05-21T11:09:44.892Z,15.09
2019-05-21T11:12:13.968Z,15.01
2019-05-21T11:14:42.790Z,14.91
2019-05-21T11:17:12.822Z,14.97
2019-05-21T11:19:41.808Z,14.99
2019-05-21T11:22:10.663Z,15.08
2019-05-21T11:24:39.403Z,15.15
2019-05-21T11:27:08.202Z,15.03
2019-05-21T11:29:37.557Z,15.14
2019-05-21T11:32:06.530Z,15.08
2019-05-21T11:34:35.486Z,15.19
2019-05-21T11:37:04.608Z,15.11
2019-05-21T11:39:33.502Z,15.06
2019-05-21T11:42:02.218Z,15.21
2019-05-21T11:44:31.064Z,15.13
2019-05-21T11:47:00.076Z,15.37
2019-05-21T11:49:29.129Z,15.41
2019-05-21T11:51:57.850Z,15.26
2019-05-21T11:54:26.624Z,15.24
2019-05-21T11:56:55.446Z,15.28
2019-05-21T11:59:24.180Z,15.26
2019-05-21T12:01:52.969Z,15.17
2019-05-21T12:04:21.728Z,15.02
2019-05-21T12:06:50.546Z,14.95
2019-05-21T12:09:19.322Z,15.05
2019-05-21T12:11:48.036Z,15.02
2019-05-21T12:14:16.753Z,15.01
2019-05-21T12:16:45.463Z,14.97
2019-05-21T12:19:14.192Z,15.02
2019-05-21T12:21:42.892Z,14.95
2019-05-21T12:24:11.642Z,14.88
2019-05-21T12:26:40.355Z,14.86
2019-05-21T12:29:09.079Z,15.03
2019-05-21T12:31:37.782Z,14.94
2019-05-21T12:34:06.818Z,14.85
2019-05-21T12:36:35.572Z,14.90
2019-05-21T12:39:14.121Z,14.92
2019-05-21T12:41:36.401Z,14.73
2019-05-21T12:44:05.206Z,14.78
2019-05-21T12:46:33.914Z,14.80
2019-05-21T12:49:02.678Z,14.78
2019-05-21T12:51:31.510Z,14.85
2019-05-21T12:54:00.241Z,14.79
2019-05-21T12:56:28.964Z,14.72
2019-05-21T12:59:00.668Z,14.90
2019-05-21T13:01:28.846Z,14.90
2019-05-21T13:03:57.560Z,14.78
2019-05-21T13:06:26.309Z,14.77
2019-05-21T13:08:55.055Z,14.91
2019-05-21T13:11:24.040Z,14.90
2019-05-21T13:13:52.763Z,14.84
2019-05-21T13:16:21.548Z,14.86
2019-05-21T13:18:50.352Z,14.91
2019-05-21T13:21:19.100Z,14.95
2019-05-21T13:23:47.836Z,14.95
2019-05-21T13:26:16.713Z,14.94
2019-05-21T13:28:45.483Z,14.91
2019-05-21T13:31:14.285Z,14.85
2019-05-21T13:33:43.131Z,15.05
2019-05-21T13:36:11.877Z,14.85
2019-05-21T13:38:40.594Z,15.02
2019-05-21T13:41:09.791Z,14.92
2019-05-21T13:43:38.510Z,14.77
2019-05-21T13:46:07.247Z,14.90
2019-05-21T13:48:36.042Z,14.90
2019-05-21T13:51:05.320Z,14.87
2019-05-21T13:53:34.157Z,14.65
2019-05-21T13:56:02.945Z,14.69
2019-05-21T13:58:31.659Z,14.74
2019-05-21T14:01:00.454Z,14.54
2019-05-21T14:03:29.233Z,14.59
2019-05-21T14:05:58.025Z,14.54
2019-05-21T14:08:26.747Z,14.61
2019-05-21T14:10:55.557Z,14.66
2019-05-21T14:13:24.468Z,14.62
2019-05-21T14:15:53.238Z,14.70
2019-05-21T14:18:21.943Z,14.80
2019-05-21T14:20:50.650Z,14.75
2019-05-21T14:23:19.426Z,14.77
2019-05-21T14:25:48.135Z,14.79
2019-05-21T14:28:16.958Z,14.78
2019-05-21T14:30:45.755Z,14.70
2019-05-21T14:33:14.656Z,14.59
2019-05-21T14:35:43.442Z,14.58
2019-05-21T14:38:12.208Z,14.52
2019-05-21T14:40:41.009Z,14.67
2019-05-21T14:43:09.841Z,14.69
2019-05-21T14:45:38.611Z,14.77
2019-05-21T14:48:07.491Z,14.59
2019-05-21T14:50:36.392Z,14.66
2019-05-21T14:53:05.202Z,14.71
2019-05-21T14:55:33.915Z,14.43
2019-05-21T14:58:02.654Z,14.44
2019-05-21T15:00:36.593Z,14.58
2019-05-21T15:03:05.710Z,14.42
2019-05-21T15:05:35.297Z,14.47
2019-05-21T15:08:05.053Z,14.30
2019-05-21T15:10:47.339Z,14.37
2019-05-21T15:13:05.929Z,14.33
2019-05-21T15:15:35.896Z,14.35
2019-05-21T15:18:05.199Z,14.32
2019-05-21T15:20:48.817Z,14.50
2019-05-21T15:23:17.630Z,14.46
2019-05-21T15:25:46.374Z,14.35
2019-05-21T15:28:15.109Z,14.42
2019-05-21T15:30:43.931Z,14.39
2019-05-21T15:33:12.774Z,14.37
2019-05-21T15:35:41.568Z,14.29
2019-05-21T15:38:10.311Z,14.27
2019-05-21T15:40:39.154Z,14.27
2019-05-21T15:43:08.979Z,14.46
2019-05-21T15:45:37.862Z,14.23
2019-05-21T15:48:06.819Z,14.30
2019-05-21T15:50:35.698Z,14.44
2019-05-21T15:53:04.582Z,14.36
2019-05-21T15:55:33.376Z,14.35
2019-05-21T15:58:02.163Z,14.44
2019-05-21T16:00:31.031Z,14.35
2019-05-21T16:02:59.905Z,14.30
2019-05-21T16:05:29.468Z,14.48
2019-05-21T16:07:58.698Z,14.50
2019-05-21T16:10:27.737Z,14.40
2019-05-21T16:12:56.459Z,14.41
2019-05-21T16:15:25.260Z,14.36
2019-05-21T16:17:53.986Z,14.38
2019-05-21T16:20:23.120Z,14.47
2019-05-21T16:22:52.079Z,14.51
2019-05-21T16:25:20.990Z,14.56
2019-05-21T16:27:49.706Z,14.29
2019-05-21T16:30:19.044Z,14.32
2019-05-21T16:32:47.860Z,14.34
2019-05-21T16:35:17.230Z,14.43
2019-05-21T16:37:46.039Z,14.35
2019-05-21T16:40:15.412Z,14.48
2019-05-21T16:42:44.140Z,14.31
2019-05-21T16:45:13.854Z,14.39
2019-05-21T16:47:46.166Z,14.37
2019-05-21T16:50:13.401Z,14.15
2019-05-21T16:52:42.101Z,14.19
2019-05-21T16:55:10.973Z,14.18
2019-05-21T16:57:39.810Z,14.24
2019-05-21T17:00:09.590Z,14.18
2019-05-21T17:02:38.308Z,14.11
2019-05-21T17:05:07.398Z,14.09
2019-05-21T17:07:36.182Z,14.09
2019-05-21T17:10:05.434Z,14.09
2019-05-21T17:12:34.209Z,14.11
2019-05-21T17:15:02.945Z,14.10
2019-05-21T17:17:31.861Z,14.19
2019-05-21T17:20:00.601Z,14.13
2019-05-21T17:22:29.374Z,14.03
2019-05-21T17:24:58.351Z,13.95
2019-05-21T17:27:27.185Z,13.91
2019-05-21T17:29:55.995Z,13.93
2019-05-21T17:32:24.959Z,13.90
2019-05-21T17:34:53.916Z,13.83
2019-05-21T17:37:23.146Z,13.91
2019-05-21T17:39:51.919Z,14.03
2019-05-21T17:42:20.805Z,13.96
2019-05-21T17:44:49.674Z,13.82
2019-05-21T17:47:18.756Z,13.82
2019-05-21T17:49:47.665Z,13.87
2019-05-21T17:52:16.418Z,13.92
2019-05-21T17:54:56.314Z,13.85
2019-05-21T17:57:15.875Z,13.81
2019-05-21T17:59:44.796Z,13.88
2019-05-21T18:02:14.093Z,13.83
2019-05-21T18:04:43.742Z,13.82
2019-05-21T18:07:13.904Z,13.73
2019-05-21T18:09:42.993Z,13.93
2019-05-21T18:12:13.656Z,13.83
2019-05-21T18:14:42.785Z,13.85
2019-05-21T18:17:15.727Z,13.75
2019-05-21T18:19:45.881Z,13.92
2019-05-21T18:22:18.106Z,13.79
2019-05-21T18:24:48.705Z,13.88
2019-05-21T18:27:17.760Z,13.87
2019-05-21T18:29:46.604Z,13.79
2019-05-21T18:32:15.481Z,13.87
2019-05-21T18:34:44.364Z,13.90
2019-05-21T18:37:13.121Z,13.90
2019-05-21T18:39:41.864Z,13.93
2019-05-21T18:42:21.814Z,13.95
2019-05-21T18:44:41.489Z,13.97
2019-05-21T18:47:10.252Z,13.91
2019-05-21T18:49:39.162Z,13.99
2019-05-21T18:52:07.912Z,13.97
2019-05-21T18:54:37.096Z,13.99
2019-05-21T18:57:06.650Z,13.96
2019-05-21T18:59:35.442Z,13.94
2019-05-21T19:02:05.740Z,14.01
2019-05-21T19:04:36.398Z,13.95
2019-05-21T19:07:05.402Z,13.91
2019-05-21T19:09:34.289Z,13.97
2019-05-21T19:12:03.515Z,13.99
2019-05-21T19:14:32.357Z,13.94
2019-05-21T19:17:01.249Z,13.99
2019-05-21T19:19:30.193Z,13.94
2019-05-21T19:21:59.005Z,13.89
2019-05-21T19:24:27.825Z,13.93
2019-05-21T19:26:57.201Z,13.99
2019-05-21T19:29:26.118Z,13.92
2019-05-21T19:31:54.876Z,13.97
2019-05-21T19:34:23.618Z,14.03
2019-05-21T19:36:52.422Z,13.97
2019-05-21T19:39:21.327Z,13.99
2019-05-21T19:41:50.087Z,13.97
2019-05-21T19:44:18.864Z,13.91
2019-05-21T19:46:47.723Z,13.97
2019-05-21T19:49:16.625Z,13.93
2019-05-21T19:51:45.370Z,14.03
2019-05-21T19:54:14.343Z,14.06
2019-05-21T19:56:43.288Z,14.06
2019-05-21T19:59:12.674Z,13.95
2019-05-21T20:01:41.608Z,13.97
2019-05-21T20:04:11.528Z,14.00
2019-05-21T20:06:40.813Z,13.93
2019-05-21T20:09:14.589Z,13.95
2019-05-21T20:11:43.937Z,13.91
2019-05-21T20:14:12.854Z,13.98
2019-05-21T20:16:42.924Z,14.08
2019-05-21T20:19:14.059Z,13.92
2019-05-21T20:21:43.379Z,13.95
2019-05-21T20:24:12.462Z,13.88
2019-05-21T20:26:42.703Z,13.94
2019-05-21T20:29:12.657Z,13.94
2019-05-21T20:31:41.642Z,13.99
2019-05-21T20:34:11.494Z,13.93
2019-05-21T20:36:40.963Z,13.92
2019-05-21T20:39:12.469Z,13.90
2019-05-21T20:41:42.041Z,14.00
2019-05-21T20:44:14.333Z,14.00
2019-05-21T20:46:43.810Z,13.94
2019-05-21T20:49:14.271Z,13.95
2019-05-21T20:51:43.078Z,13.87
2019-05-21T20:54:13.557Z,13.99
2019-05-21T20:56:42.544Z,13.96
2019-05-21T20:59:11.466Z,13.96
2019-05-21T21:01:41.342Z,14.04
2019-05-21T21:04:10.503Z,13.98
2019-05-21T21:06:40.385Z,13.90
2019-05-21T21:09:10.338Z,14.00
2019-05-21T21:11:40.101Z,14.00
2019-05-21T21:14:18.118Z,13.95
2019-05-21T21:16:42.542Z,13.85
2019-05-21T21:19:11.888Z,13.95
2019-05-21T21:21:41.844Z,13.93
2019-05-21T21:24:10.776Z,13.89
2019-05-21T21:26:40.123Z,13.88
2019-05-21T21:29:10.604Z,13.91
2019-05-21T21:31:39.585Z,13.82
2019-05-21T21:34:08.834Z,13.84
2019-05-21T21:36:37.844Z,13.90
2019-05-21T21:39:07.864Z,13.79
2019-05-21T21:41:38.535Z,13.87
2019-05-21T21:44:07.906Z,13.84
2019-05-21T21:46:37.349Z,13.79
2019-05-21T21:49:06.180Z,13.87
2019-05-21T21:51:35.494Z,13.85
2019-05-21T21:54:05.082Z,13.79
2019-05-21T21:56:33.817Z,13.73
2019-05-21T21:59:02.564Z,13.71
2019-05-21T22:01:49.155Z,13.71
2019-05-21T22:04:21.102Z,13.72
2019-05-21T22:06:50.245Z,13.77
2019-05-21T22:09:28.934Z,13.84
2019-05-21T22:11:58.180Z,13.74
2019-05-21T22:14:28.099Z,13.63
2019-05-21T22:16:57.193Z,13.67
2019-05-21T22:19:26.899Z,13.73
2019-05-21T22:21:56.064Z,13.72
2019-05-21T22:24:25.090Z,13.73
2019-05-21T22:26:54.434Z,13.53
2019-05-21T22:29:23.298Z,13.57
2019-05-21T22:31:52.612Z,13.59
2019-05-21T22:34:21.965Z,13.55
2019-05-21T22:36:50.728Z,13.50
2019-05-21T22:39:23.945Z,13.55
2019-05-21T22:41:52.967Z,13.46
2019-05-21T22:44:21.713Z,13.48
2019-05-21T22:46:50.722Z,13.52
2019-05-21T22:49:19.781Z,13.50
2019-05-21T22:51:48.614Z,13.53
2019-05-21T22:54:17.429Z,13.53
2019-05-21T22:56:46.274Z,13.53
2019-05-21T22:59:15.000Z,13.46
2019-05-21T23:01:44.310Z,13.49
2019-05-21T23:04:13.280Z,13.51
2019-05-21T23:06:42.023Z,13.53
2019-05-21T23:09:10.853Z,13.38
2019-05-21T23:11:39.598Z,13.37
2019-05-21T23:14:08.342Z,13.40
2019-05-21T23:16:37.940Z,13.41
2019-05-21T23:19:08.650Z,13.39
2019-05-21T23:21:37.399Z,13.31
2019-05-21T23:24:13.108Z,13.36
2019-05-21T23:26:42.739Z,13.35
2019-05-21T23:29:11.734Z,13.28
2019-05-21T23:31:40.552Z,13.25
2019-05-21T23:34:10.395Z,13.23
2019-05-21T23:36:40.816Z,13.34
2019-05-21T23:39:13.634Z,13.29
2019-05-21T23:41:45.184Z,13.21
2019-05-21T23:44:14.390Z,13.24
2019-05-21T23:46:43.316Z,13.12
2019-05-21T23:49:12.122Z,13.13
2019-05-21T23:51:41.371Z,13.21
2019-05-21T23:54:10.918Z,13.17
2019-05-21T23:56:39.831Z,13.02
2019-05-21T23:59:08.558Z,13.07
